Time;durP1;ratioP1;P1;durP2;ratioP2;P2;SDS_P1;SDS_P2;PMS_P1;PMS_P2;Temp;Humidity;BMP_temperature;BMP_pressure;BME280_temperature;BME280_humidity;BME280_pressure;Samples;Min_cycle;Max_cycle;Signal;HPM_P1;HPM_P2
2023/08/27 00:02:07;;;;;;;1081.22;962.20;;;13.30;99.90;;;;;;5055036;28;20048;-85
2023/08/27 00:04:33;;;;;;;1081.65;962.53;;;13.30;99.90;;;;;;5055737;28;20044;-85
2023/08/27 00:06:59;;;;;;;1093.15;973.88;;;13.30;99.90;;;;;;5072343;28;20123;-85
2023/08/27 00:09:24;;;;;;;1074.97;958.33;;;13.30;99.90;;;;;;5071497;28;20081;-85
2023/08/27 00:11:50;;;;;;;1087.22;968.15;;;13.20;99.90;;;;;;5090848;28;20043;-85
2023/08/27 00:14:16;;;;;;;1086.85;967.15;;;13.20;99.90;;;;;;5072132;28;20055;-85
2023/08/27 00:16:41;;;;;;;1136.65;984.33;;;13.20;99.90;;;;;;5071551;28;20101;-85
2023/08/27 00:19:07;;;;;;;1120.88;987.10;;;13.20;99.90;;;;;;5055643;28;20040;-85
2023/08/27 00:21:33;;;;;;;1109.25;967.35;;;13.20;99.90;;;;;;5055049;28;20040;-85
2023/08/27 00:23:59;;;;;;;1166.78;988.25;;;13.20;99.90;;;;;;5056002;28;20052;-85
2023/08/27 00:26:24;;;;;;;1146.80;986.63;;;13.20;99.90;;;;;;5089522;28;20044;-85
2023/08/27 00:28:50;;;;;;;1143.10;983.47;;;13.10;99.90;;;;;;5071683;28;20314;-85
2023/08/27 00:31:16;;;;;;;1203.57;999.90;;;13.10;99.90;;;;;;5071651;28;20067;-85
2023/08/27 00:33:41;;;;;;;1190.80;997.20;;;13.10;99.90;;;;;;5071965;28;20036;-85
2023/08/27 00:36:07;;;;;;;1195.55;998.03;;;13.10;99.90;;;;;;5054715;28;20498;-85
2023/08/27 00:38:33;;;;;;;1146.72;993.78;;;13.10;99.90;;;;;;5071866;28;20371;-85
2023/08/27 00:40:59;;;;;;;1131.55;981.00;;;13.10;99.90;;;;;;5067460;28;20675;-85
2023/08/27 00:43:25;;;;;;;1140.25;989.08;;;13.00;99.90;;;;;;5082430;28;20044;-85
2023/08/27 00:45:51;;;;;;;1124.90;986.58;;;13.00;99.90;;;;;;5070414;28;20491;-85
2023/08/27 00:48:17;;;;;;;1199.82;998.63;;;13.00;99.90;;;;;;5072104;28;20139;-85
2023/08/27 00:50:43;;;;;;;1134.75;980.65;;;13.00;99.90;;;;;;5088049;28;20035;-85
2023/08/27 00:53:09;;;;;;;1162.10;994.65;;;12.90;99.90;;;;;;5071855;28;20046;-85
2023/08/27 00:55:35;;;;;;;1209.40;997.28;;;12.90;99.90;;;;;;5070063;28;20437;-86
2023/08/27 00:58:01;;;;;;;1204.53;999.90;;;12.90;99.90;;;;;;5071091;28;20040;-85
2023/08/27 01:00:27;;;;;;;1197.97;993.97;;;12.90;99.90;;;;;;5089484;28;20052;-85
2023/08/27 01:02:53;;;;;;;1220.20;996.58;;;12.90;99.90;;;;;;5054319;28;20040;-85
2023/08/27 01:05:20;;;;;;;1169.50;993.05;;;12.90;99.90;;;;;;5070671;28;20187;-85
2023/08/27 01:07:58;;;;;;;1295.68;999.90;;;13.00;99.90;;;;;;5070921;28;20040;-85
2023/08/27 01:10:46;;;;;;;1200.78;992.75;;;13.00;99.90;;;;;;5076853;28;20478;-85
2023/08/27 01:13:19;;;;;;;1284.80;999.90;;;13.10;99.90;;;;;;5071095;28;20036;-85
2023/08/27 01:15:47;;;;;;;1186.57;997.42;;;13.10;99.90;;;;;;5089324;28;20047;-86
2023/08/27 01:18:15;;;;;;;1245.70;999.78;;;13.10;99.90;;;;;;5070117;28;20064;-85
2023/08/27 01:20:41;;;;;;;1206.13;997.45;;;13.20;99.90;;;;;;5070866;28;20125;-85
2023/08/27 01:23:07;;;;;;;1221.20;997.10;;;13.20;99.90;;;;;;5088944;28;20048;-85
2023/08/27 01:26:00;;;;;;;1227.75;999.90;;;13.20;99.90;;;;;;5069526;28;20062;-85
2023/08/27 01:28:42;;;;;;;1264.25;999.90;;;13.20;99.90;;;;;;5039517;28;20137;-85
2023/08/27 01:31:11;;;;;;;1179.33;994.37;;;13.20;99.90;;;;;;5086775;28;20090;-85
2023/08/27 01:33:38;;;;;;;1252.13;999.58;;;13.10;99.90;;;;;;5088836;28;20133;-85
2023/08/27 01:36:05;;;;;;;1260.47;999.90;;;13.10;99.90;;;;;;5088921;28;20051;-85
2023/08/27 01:38:30;;;;;;;1246.88;999.90;;;13.10;99.90;;;;;;5089434;28;20067;-85
2023/08/27 01:40:56;;;;;;;1135.15;978.30;;;13.10;99.90;;;;;;5068585;28;20475;-86
2023/08/27 01:43:22;;;;;;;1198.88;999.90;;;13.10;99.90;;;;;;5070958;28;20049;-85
2023/08/27 01:45:47;;;;;;;1223.60;999.30;;;13.10;99.90;;;;;;5069773;28;20079;-85
2023/08/27 01:48:13;;;;;;;1202.65;999.90;;;13.10;99.90;;;;;;5052523;28;20068;-85
2023/08/27 01:50:39;;;;;;;1242.13;999.03;;;13.10;99.90;;;;;;5069787;28;20075;-85
2023/08/27 01:53:04;;;;;;;1238.47;999.90;;;13.20;99.90;;;;;;5070096;28;20043;-85
2023/08/27 01:55:30;;;;;;;1172.22;985.25;;;13.20;99.90;;;;;;5083059;28;20386;-85
2023/08/27 01:57:56;;;;;;;1155.45;982.40;;;13.20;99.90;;;;;;5069257;28;20089;-85
2023/08/27 02:00:22;;;;;;;1222.65;999.90;;;13.20;99.90;;;;;;5082747;28;20044;-85
2023/08/27 02:02:50;;;;;;;1145.93;985.45;;;13.20;99.90;;;;;;5057849;28;20058;-85
2023/08/27 02:05:15;;;;;;;1127.18;979.40;;;13.20;99.90;;;;;;5052606;28;20391;-85
2023/08/27 02:07:41;;;;;;;1124.28;972.03;;;13.20;99.90;;;;;;5069023;28;20043;-85
2023/08/27 02:10:08;;;;;;;1231.00;999.90;;;13.20;99.90;;;;;;5052860;28;20510;-85
2023/08/27 02:12:34;;;;;;;1196.80;997.70;;;13.20;99.90;;;;;;5053313;28;20048;-84
2023/08/27 02:14:59;;;;;;;1169.63;990.50;;;13.20;99.90;;;;;;5069320;28;20054;-86
2023/08/27 02:17:25;;;;;;;1201.97;999.10;;;13.10;99.90;;;;;;5053794;28;20036;-85
2023/08/27 02:19:51;;;;;;;1174.05;977.67;;;13.10;99.90;;;;;;5086944;28;20200;-85
2023/08/27 02:22:17;;;;;;;1095.05;953.88;;;13.10;99.90;;;;;;5069275;28;20050;-85
2023/08/27 02:24:43;;;;;;;1229.20;999.90;;;13.10;99.90;;;;;;5051544;28;20046;-85
2023/08/27 02:27:08;;;;;;;1176.15;986.03;;;13.10;99.90;;;;;;5088513;28;20040;-85
2023/08/27 02:29:35;;;;;;;1226.88;999.90;;;13.10;99.90;;;;;;5065610;28;20119;-85
2023/08/27 02:32:02;;;;;;;1163.80;984.90;;;13.10;99.90;;;;;;5069578;28;20048;-85
2023/08/27 02:34:28;;;;;;;1228.78;999.47;;;13.30;99.90;;;;;;5069574;28;20079;-84
2023/08/27 02:36:53;;;;;;;1229.43;999.90;;;13.00;99.90;;;;;;5051463;28;20075;-85
2023/08/27 02:39:19;;;;;;;1193.22;990.58;;;13.00;99.90;;;;;;5052082;28;20043;-85
2023/08/27 02:41:45;;;;;;;1169.07;993.28;;;13.00;99.90;;;;;;5053112;28;20101;-85
2023/08/27 02:44:10;;;;;;;1240.65;999.90;;;12.90;99.90;;;;;;5052367;28;20538;-85
2023/08/27 02:46:36;;;;;;;1181.38;992.70;;;12.90;99.90;;;;;;5069768;28;20040;-85
2023/08/27 02:49:02;;;;;;;1193.22;993.60;;;12.90;99.90;;;;;;5068850;28;20120;-85
2023/08/27 02:51:28;;;;;;;1200.13;997.80;;;12.90;99.90;;;;;;5068904;28;20135;-85
2023/08/27 02:53:53;;;;;;;1259.55;999.90;;;12.90;99.90;;;;;;5052252;28;20046;-85
2023/08/27 02:56:19;;;;;;;1187.15;988.97;;;12.90;99.90;;;;;;5086168;28;20055;-84
2023/08/27 02:58:49;;;;;;;1248.68;999.90;;;12.90;99.90;;;;;;5068842;28;20051;-85
2023/08/27 03:01:20;;;;;;;1283.88;999.90;;;12.90;99.90;;;;;;5065304;28;20125;-85
2023/08/27 03:03:47;;;;;;;1270.50;999.90;;;12.90;99.90;;;;;;5055126;28;20518;-85
2023/08/27 03:06:12;;;;;;;1232.18;998.88;;;12.90;99.90;;;;;;5068905;28;20441;-85
2023/08/27 03:08:38;;;;;;;1238.97;999.55;;;12.90;99.90;;;;;;5085516;28;20044;-85
2023/08/27 03:11:04;;;;;;;1264.47;999.90;;;12.90;99.90;;;;;;5051193;28;20044;-85
2023/08/27 03:13:30;;;;;;;1183.65;993.85;;;12.90;99.90;;;;;;5052465;28;20086;-85
2023/08/27 03:15:55;;;;;;;1270.68;999.90;;;12.90;99.90;;;;;;5087355;28;20062;-85
2023/08/27 03:18:21;;;;;;;1190.72;988.05;;;12.90;99.90;;;;;;5048554;28;20502;-84
2023/08/27 03:20:47;;;;;;;1265.05;999.90;;;12.90;99.90;;;;;;5059179;28;20503;-85
2023/08/27 03:23:12;;;;;;;1189.78;986.75;;;12.90;99.90;;;;;;5066046;28;20033;-85
2023/08/27 03:25:38;;;;;;;1265.45;999.90;;;12.90;99.90;;;;;;5078644;28;20040;-85
2023/08/27 03:28:04;;;;;;;1239.03;999.28;;;12.90;99.90;;;;;;5087623;28;20098;-85
2023/08/27 03:30:30;;;;;;;1253.35;999.67;;;12.90;99.90;;;;;;5052237;28;20483;-84
2023/08/27 03:32:55;;;;;;;1188.03;992.83;;;12.90;99.90;;;;;;5050904;28;20155;-85
2023/08/27 03:35:21;;;;;;;1257.80;999.90;;;12.90;99.90;;;;;;5087406;28;20052;-85
2023/08/27 03:37:47;;;;;;;1178.40;982.75;;;12.90;99.90;;;;;;5067870;28;20079;-85
2023/08/27 03:40:13;;;;;;;1178.68;983.88;;;12.90;99.90;;;;;;5067481;28;20118;-85
2023/08/27 03:42:38;;;;;;;1245.22;997.40;;;12.90;99.90;;;;;;5051562;28;20132;-84
2023/08/27 03:45:04;;;;;;;1268.78;999.90;;;12.90;99.90;;;;;;5068849;28;20097;-84
2023/08/27 03:47:30;;;;;;;1270.63;999.90;;;12.90;99.90;;;;;;5086530;28;20051;-85
2023/08/27 03:49:56;;;;;;;1261.95;998.65;;;12.90;99.90;;;;;;5064307;28;20044;-85
2023/08/27 03:52:21;;;;;;;1252.50;999.90;;;13.00;99.90;;;;;;5068754;28;20051;-85
2023/08/27 03:54:47;;;;;;;1254.63;998.70;;;13.00;99.90;;;;;;5046443;28;20044;-84
2023/08/27 03:57:13;;;;;;;1192.88;982.72;;;13.00;99.90;;;;;;5068917;28;20046;-85
2023/08/27 03:59:38;;;;;;;1233.97;996.38;;;13.00;99.90;;;;;;5050763;28;20075;-85
2023/08/27 04:02:04;;;;;;;1191.38;981.70;;;13.00;99.90;;;;;;5080695;28;20048;-85
2023/08/27 04:04:32;;;;;;;1222.32;987.33;;;13.00;99.90;;;;;;5061638;28;20052;-85
2023/08/27 04:06:57;;;;;;;1145.63;959.58;;;13.00;99.90;;;;;;5046985;28;20044;-84
2023/08/27 04:09:23;;;;;;;1146.88;958.45;;;13.10;99.90;;;;;;5060882;28;20295;-83
2023/08/27 04:11:49;;;;;;;1230.07;998.17;;;13.10;99.90;;;;;;5068436;28;20398;-84
2023/08/27 04:14:14;;;;;;;1216.05;991.85;;;13.00;99.90;;;;;;5067531;28;20047;-84
2023/08/27 04:16:40;;;;;;;1083.38;929.47;;;13.10;99.90;;;;;;5068276;28;20044;-84
2023/08/27 04:19:06;;;;;;;1237.22;997.38;;;13.10;99.90;;;;;;5051260;28;20040;-84
2023/08/27 04:21:31;;;;;;;1194.18;985.25;;;13.10;99.90;;;;;;5070111;28;20035;-83
2023/08/27 04:23:57;;;;;;;1156.15;964.22;;;13.10;99.90;;;;;;5072194;28;20044;-83
2023/08/27 04:26:24;;;;;;;1191.63;969.55;;;13.10;99.90;;;;;;5089221;28;20135;-84
2023/08/27 04:28:50;;;;;;;1169.32;966.63;;;13.10;99.90;;;;;;5089701;28;20775;-84
2023/08/27 04:31:16;;;;;;;1215.25;989.88;;;13.10;99.90;;;;;;5071474;28;20054;-84
2023/08/27 04:33:43;;;;;;;1199.95;993.30;;;13.10;99.90;;;;;;5054821;28;20283;-84
2023/08/27 04:36:09;;;;;;;1188.38;979.78;;;13.10;99.90;;;;;;5070929;28;20043;-84
2023/08/27 04:38:34;;;;;;;906.28;810.42;;;13.10;99.90;;;;;;5054968;28;20449;-84
2023/08/27 04:41:00;;;;;;;890.78;798.60;;;13.10;99.90;;;;;;5054167;28;20135;-83
2023/08/27 04:43:26;;;;;;;987.97;882.13;;;13.10;99.90;;;;;;5054631;28;20044;-84
2023/08/27 04:45:53;;;;;;;970.22;863.20;;;13.10;99.90;;;;;;5089548;28;20106;-84
2023/08/27 04:48:19;;;;;;;882.50;789.67;;;13.10;99.90;;;;;;5071864;28;20048;-84
2023/08/27 04:50:48;;;;;;;965.13;860.75;;;13.10;99.90;;;;;;5088344;28;20039;-83
2023/08/27 04:53:14;;;;;;;903.13;809.75;;;13.10;99.90;;;;;;5055051;28;20040;-84
2023/08/27 04:55:40;;;;;;;929.17;832.58;;;13.10;99.90;;;;;;5070420;28;20040;-83
2023/08/27 04:58:07;;;;;;;987.50;880.67;;;13.10;99.90;;;;;;5089547;28;20501;-83
2023/08/27 05:00:34;;;;;;;986.47;879.90;;;13.00;99.90;;;;;;5054307;28;20040;-83
2023/08/27 05:03:00;;;;;;;937.33;839.25;;;13.00;99.90;;;;;;5053964;28;20043;-83
2023/08/27 05:05:26;;;;;;;967.97;865.53;;;13.00;99.90;;;;;;5071164;28;20042;-83
2023/08/27 05:07:52;;;;;;;1021.38;908.83;;;13.00;99.90;;;;;;5053929;28;20044;-83
2023/08/27 05:10:18;;;;;;;928.50;831.67;;;13.00;99.90;;;;;;5053181;28;20066;-83
2023/08/27 05:12:43;;;;;;;953.25;852.47;;;13.00;99.90;;;;;;5053703;28;20069;-82
2023/08/27 05:15:09;;;;;;;938.75;840.63;;;13.00;99.90;;;;;;5071317;28;20040;-83
2023/08/27 05:17:35;;;;;;;943.03;843.92;;;13.00;99.90;;;;;;5067547;28;20090;-83
2023/08/27 05:20:03;;;;;;;918.55;824.08;;;13.00;99.90;;;;;;5054461;28;20120;-83
2023/08/27 05:22:28;;;;;;;991.22;884.63;;;13.00;99.90;;;;;;5071330;28;20044;-82
2023/08/27 05:24:54;;;;;;;961.58;858.78;;;12.90;99.90;;;;;;5068836;28;20041;-83
2023/08/27 05:27:20;;;;;;;951.20;851.58;;;13.00;99.90;;;;;;5089225;28;20044;-83
2023/08/27 05:29:46;;;;;;;957.22;854.60;;;13.00;99.90;;;;;;5088291;28;20075;-83
2023/08/27 05:32:12;;;;;;;1007.03;896.65;;;13.00;99.90;;;;;;5069829;28;20121;-83
2023/08/27 05:34:38;;;;;;;924.47;827.20;;;13.00;99.90;;;;;;5070693;28;20194;-83
2023/08/27 05:37:03;;;;;;;973.38;869.65;;;13.00;99.90;;;;;;5055205;28;20032;-82
2023/08/27 05:39:29;;;;;;;962.83;859.10;;;13.00;99.90;;;;;;5068605;28;20104;-82
2023/08/27 05:41:55;;;;;;;892.95;801.40;;;13.00;99.90;;;;;;5053494;28;20036;-83
2023/08/27 05:44:21;;;;;;;968.88;863.00;;;13.10;99.90;;;;;;5070744;28;20706;-82
2023/08/27 05:46:46;;;;;;;969.50;864.45;;;13.20;99.90;;;;;;5053012;28;20303;-83
2023/08/27 05:49:12;;;;;;;926.78;827.83;;;13.30;99.90;;;;;;5051619;28;20101;-83
2023/08/27 05:51:38;;;;;;;1129.85;955.75;;;13.40;99.90;;;;;;5069937;28;20048;-82
2023/08/27 05:54:04;;;;;;;1173.95;971.20;;;13.50;99.90;;;;;;5049080;28;20488;-83
2023/08/27 05:56:30;;;;;;;902.92;811.33;;;13.60;99.90;;;;;;5082312;28;20044;-82
2023/08/27 05:58:57;;;;;;;937.13;842.88;;;13.70;99.90;;;;;;5069674;28;20122;-83
2023/08/27 06:01:23;;;;;;;1037.40;918.47;;;13.80;99.90;;;;;;5049368;28;20530;-83
2023/08/27 06:03:49;;;;;;;1096.85;943.75;;;13.90;99.90;;;;;;5017292;28;20274;-83
2023/08/27 06:06:15;;;;;;;1103.82;955.60;;;13.90;99.90;;;;;;5045631;28;20045;-82
2023/08/27 06:08:40;;;;;;;1090.72;952.17;;;13.90;99.90;;;;;;5029403;28;20075;-83
2023/08/27 06:11:06;;;;;;;1113.65;962.58;;;14.00;99.90;;;;;;5029320;28;20128;-82
2023/08/27 06:13:32;;;;;;;1073.05;951.55;;;14.00;99.90;;;;;;5045341;28;20036;-82
2023/08/27 06:15:57;;;;;;;1071.22;942.08;;;14.00;99.90;;;;;;5020384;28;20056;-82
2023/08/27 06:18:23;;;;;;;1055.05;934.85;;;14.00;99.90;;;;;;5044221;28;20041;-82
2023/08/27 06:20:49;;;;;;;1110.93;953.78;;;14.10;99.90;;;;;;5045763;28;20496;-82
2023/08/27 06:23:15;;;;;;;1115.28;957.75;;;14.10;99.90;;;;;;5029858;28;20534;-83
2023/08/27 06:25:41;;;;;;;1045.05;929.50;;;14.20;99.90;;;;;;5044757;28;20053;-82
2023/08/27 06:28:07;;;;;;;1088.57;956.38;;;14.20;99.90;;;;;;5046943;28;20511;-83
2023/08/27 06:30:33;;;;;;;1052.68;929.97;;;14.30;99.90;;;;;;5045735;28;20041;-83
2023/08/27 06:32:59;;;;;;;1064.72;946.47;;;14.40;99.90;;;;;;5045732;28;20566;-83
2023/08/27 06:35:25;;;;;;;1087.70;947.35;;;14.40;99.90;;;;;;5044932;28;20037;-83
2023/08/27 06:37:51;;;;;;;1065.30;946.08;;;14.40;99.90;;;;;;5046563;28;20083;-83
2023/08/27 06:40:17;;;;;;;1086.38;911.55;;;14.40;99.90;;;;;;5045437;28;20068;-83
2023/08/27 06:42:42;;;;;;;1010.30;838.00;;;14.40;99.90;;;;;;5027707;28;20029;-83
2023/08/27 06:45:09;;;;;;;950.85;816.20;;;14.40;99.90;;;;;;5029638;28;20041;-83
2023/08/27 06:47:36;;;;;;;1076.40;885.65;;;14.40;99.90;;;;;;5030308;28;20155;-87
2023/08/27 06:50:04;;;;;;;931.70;831.00;;;14.40;99.90;;;;;;5025281;28;20131;-87
2023/08/27 06:52:33;;;;;;;946.58;844.00;;;14.40;99.90;;;;;;5026789;28;20144;-85
2023/08/27 06:55:00;;;;;;;1097.40;949.08;;;14.40;99.90;;;;;;5040949;28;20053;-85
2023/08/27 06:57:26;;;;;;;1102.30;939.38;;;14.30;99.90;;;;;;5029415;28;20044;-83
2023/08/27 06:59:52;;;;;;;1068.68;936.53;;;14.30;99.90;;;;;;5052509;28;20048;-83
2023/08/27 07:02:18;;;;;;;1120.75;952.17;;;14.30;99.90;;;;;;5069634;28;20080;-83
2023/08/27 07:04:43;;;;;;;1100.47;935.25;;;14.30;99.90;;;;;;5066537;28;20086;-82
2023/08/27 07:07:09;;;;;;;1060.80;910.80;;;14.30;99.90;;;;;;5069673;28;20087;-83
2023/08/27 07:09:35;;;;;;;1027.55;908.67;;;14.30;99.90;;;;;;5085132;28;20051;-83
2023/08/27 07:12:01;;;;;;;1001.08;889.88;;;14.30;99.90;;;;;;5087206;28;20032;-82
2023/08/27 07:14:27;;;;;;;1080.90;935.60;;;14.40;99.90;;;;;;5069301;28;20054;-83
2023/08/27 07:16:53;;;;;;;1097.00;930.92;;;14.40;99.90;;;;;;5086361;28;20044;-83
2023/08/27 07:19:18;;;;;;;1161.97;975.17;;;14.40;99.90;;;;;;5066645;28;20043;-83
2023/08/27 07:21:44;;;;;;;1104.45;936.22;;;14.40;99.90;;;;;;5052293;28;20126;-83
2023/08/27 07:24:13;;;;;;;1180.47;977.97;;;14.40;99.90;;;;;;5085222;28;20051;-82
2023/08/27 07:26:39;;;;;;;1110.43;939.53;;;14.40;99.90;;;;;;5065536;28;20513;-83
2023/08/27 07:29:05;;;;;;;1088.38;913.75;;;14.40;99.90;;;;;;5086470;28;20044;-83
2023/08/27 07:31:31;;;;;;;1135.47;890.40;;;14.50;99.90;;;;;;5087102;28;20040;-82
2023/08/27 07:33:57;;;;;;;1040.50;818.58;;;14.50;99.90;;;;;;5067550;28;21453;-83
2023/08/27 07:36:23;;;;;;;929.50;784.72;;;14.60;99.90;;;;;;5064942;28;20052;-83
2023/08/27 07:38:48;;;;;;;866.47;774.72;;;14.60;99.90;;;;;;5052094;28;20527;-83
2023/08/27 07:41:14;;;;;;;862.03;770.50;;;14.70;99.90;;;;;;5068057;28;20031;-83
2023/08/27 07:43:40;;;;;;;957.58;854.05;;;14.80;99.90;;;;;;5086191;28;20510;-83
2023/08/27 07:46:05;;;;;;;935.97;836.80;;;14.80;99.90;;;;;;5051298;28;20036;-83
2023/08/27 07:48:32;;;;;;;938.38;843.15;;;14.80;99.90;;;;;;5067825;28;20055;-83
2023/08/27 07:50:58;;;;;;;968.97;868.35;;;14.80;99.90;;;;;;5046876;28;20054;-82
2023/08/27 07:53:24;;;;;;;881.45;797.15;;;14.80;99.90;;;;;;5084113;28;20040;-83
2023/08/27 07:55:50;;;;;;;967.65;869.00;;;14.80;99.90;;;;;;5069873;28;20067;-83
2023/08/27 07:58:16;;;;;;;920.40;828.17;;;14.80;99.90;;;;;;5056356;28;20340;-83
2023/08/27 08:00:42;;;;;;;912.05;822.10;;;14.90;99.90;;;;;;5070614;28;20056;-83
2023/08/27 08:03:08;;;;;;;953.88;852.30;;;14.90;99.90;;;;;;5055812;28;20612;-83
2023/08/27 08:05:34;;;;;;;921.17;826.22;;;14.90;99.90;;;;;;5055655;28;20036;-83
2023/08/27 08:08:00;;;;;;;910.85;820.17;;;15.00;99.90;;;;;;5071457;28;20516;-84
2023/08/27 08:10:27;;;;;;;877.45;791.38;;;15.10;99.90;;;;;;5089943;28;20047;-83
2023/08/27 08:12:53;;;;;;;853.30;771.42;;;15.10;99.90;;;;;;5070151;28;20044;-84
2023/08/27 08:15:19;;;;;;;810.45;731.67;;;15.20;99.90;;;;;;5090904;28;20051;-84
2023/08/27 08:17:45;;;;;;;765.42;688.78;;;15.40;99.90;;;;;;5053150;28;20032;-84
2023/08/27 08:20:14;;;;;;;801.03;721.85;;;15.60;99.90;;;;;;5051407;28;20052;-84
2023/08/27 08:22:40;;;;;;;780.78;706.63;;;15.70;99.90;;;;;;5054438;28;20090;-84
2023/08/27 08:25:06;;;;;;;767.28;694.45;;;15.90;99.90;;;;;;5089994;28;20411;-85
2023/08/27 08:27:33;;;;;;;741.33;674.13;;;16.10;99.90;;;;;;5090293;28;20044;-83
2023/08/27 08:30:01;;;;;;;597.40;542.20;;;16.20;99.90;;;;;;5072073;28;20040;-84
2023/08/27 08:32:27;;;;;;;614.03;557.25;;;16.30;99.90;;;;;;5072541;28;20048;-84
2023/08/27 08:34:54;;;;;;;615.38;559.83;;;16.40;99.90;;;;;;5064146;28;20056;-84
2023/08/27 08:37:20;;;;;;;683.97;625.10;;;16.50;99.90;;;;;;5051639;28;20048;-84
2023/08/27 08:39:45;;;;;;;564.45;515.05;;;16.60;99.90;;;;;;5053597;28;20118;-83
2023/08/27 08:42:23;;;;;;;944.13;853.88;;;16.80;99.90;;;;;;5071296;28;20044;-84
2023/08/27 08:45:11;;;;;;;890.58;803.85;;;16.90;99.90;;;;;;5076662;28;20055;-88
2023/08/27 08:48:00;;;;;;;694.38;629.25;;;17.00;99.90;;;;;;5057957;28;20490;-95
2023/08/27 08:50:54;;;;;;;730.90;660.80;;;17.00;99.90;;;;;;5076323;22;20051;-94
2023/08/27 08:53:23;;;;;;;914.53;826.78;;;17.30;99.90;;;;;;5078996;28;20228;-90
2023/08/27 08:55:56;;;;;;;531.08;483.83;;;17.40;99.90;;;;;;5093256;28;20124;-89
2023/08/27 08:58:23;;;;;;;;;;;17.50;99.90;;;;;;5108583;28;20077;-89
2023/08/27 09:00:56;;;;;;;638.53;581.75;;;17.50;99.90;;;;;;5086045;28;19950;-92
2023/08/27 09:03:22;;;;;;;781.88;716.95;;;17.60;99.90;;;;;;5111974;28;20483;-87
2023/08/27 09:09:34;;;;;;;689.10;631.20;;;17.80;99.90;;;;;;5090475;22;20054;-91
2023/08/27 09:15:24;;;;;;;732.50;670.40;;;17.90;99.90;;;;;;5324822;22;20074;-88
2023/08/27 09:17:56;;;;;;;541.97;499.67;;;17.80;99.90;;;;;;5061108;28;20084;-91
2023/08/27 09:20:28;;;;;;;478.02;441.55;;;17.90;99.90;;;;;;5081364;28;20123;-86
2023/08/27 09:22:54;;;;;;;477.35;438.13;;;17.90;99.90;;;;;;5070919;28;20047;-88
2023/08/27 09:25:22;;;;;;;482.83;441.50;;;17.90;99.90;;;;;;5074368;28;20047;-89
2023/08/27 09:28:18;;;;;;;410.27;377.00;;;18.10;99.90;;;;;;5091653;28;20048;-89
2023/08/27 09:30:47;;;;;;;424.38;389.33;;;18.30;99.90;;;;;;5069575;28;20090;-91
2023/08/27 09:34:11;;;;;;;374.63;345.15;;;18.30;99.90;;;;;;5064140;28;20052;-90
2023/08/27 09:36:45;;;;;;;186.50;173.50;;;18.40;99.90;;;;;;5071705;28;20040;-91
2023/08/27 09:42:20;;;;;;;406.92;376.33;;;18.60;99.90;;;;;;5088025;22;20566;-96
2023/08/27 09:44:50;;;;;;;425.52;395.00;;;18.80;99.90;;;;;;5045822;28;20118;-96
2023/08/27 09:47:16;;;;;;;413.73;381.00;;;18.90;99.90;;;;;;5054236;28;20085;-96
2023/08/27 09:49:45;;;;;;;456.63;419.98;;;19.00;99.90;;;;;;5070221;28;20048;-96
2023/08/27 09:52:11;;;;;;;597.63;547.65;;;19.10;99.90;;;;;;5043627;28;20040;-96
2023/08/27 09:54:37;;;;;;;350.13;322.45;;;19.30;99.90;;;;;;5070212;28;20480;-96
2023/08/27 09:57:16;;;;;;;588.45;539.92;;;19.10;99.90;;;;;;5067951;28;20086;-96
2023/08/27 09:59:48;;;;;;;369.85;335.25;;;19.10;99.90;;;;;;5049793;28;20076;-96
2023/08/27 10:02:15;;;;;;;296.45;269.25;;;18.90;99.90;;;;;;5070327;28;20033;-96
2023/08/27 10:04:56;;;;;;;404.52;373.63;;;18.80;99.90;;;;;;5072657;28;20055;-96
2023/08/27 10:07:26;;;;;;;601.53;550.70;;;18.70;99.90;;;;;;5078014;28;20047;-96
2023/08/27 10:09:59;;;;;;;594.33;544.63;;;18.80;99.90;;;;;;5046063;28;20327;-96
2023/08/27 10:12:28;;;;;;;420.85;380.00;;;19.10;99.90;;;;;;5062366;28;20480;-96
2023/08/27 10:14:55;;;;;;;441.88;402.42;;;19.20;99.90;;;;;;5059266;28;20143;-96
2023/08/27 10:17:22;;;;;;;566.92;511.73;;;19.30;99.90;;;;;;5069987;28;20047;-91
2023/08/27 10:19:48;;;;;;;703.30;636.90;;;19.30;99.90;;;;;;5051252;28;20047;-90
2023/08/27 10:22:16;;;;;;;750.70;680.90;;;19.20;99.90;;;;;;5052240;28;20085;-91
2023/08/27 10:24:45;;;;;;;682.33;615.30;;;19.00;99.90;;;;;;5049623;28;20048;-91
2023/08/27 10:27:10;;;;;;;636.17;572.50;;;18.90;99.90;;;;;;5045887;28;20403;-91
2023/08/27 10:29:37;;;;;;;562.78;513.38;;;18.80;99.90;;;;;;5049923;28;20040;-91
2023/08/27 10:32:04;;;;;;;180.07;167.23;;;18.90;99.90;;;;;;5051867;28;20059;-91
2023/08/27 10:34:30;;;;;;;324.80;298.88;;;19.00;99.90;;;;;;5050229;28;20036;-92
2023/08/27 10:37:02;;;;;;;433.75;391.25;;;19.10;99.90;;;;;;5050808;28;20368;-91
2023/08/27 10:39:33;;;;;;;465.60;423.80;;;19.20;99.90;;;;;;5044747;28;20040;-91
2023/08/27 10:41:59;;;;;;;680.10;621.88;;;19.30;99.90;;;;;;5067001;28;20044;-91
2023/08/27 10:44:25;;;;;;;671.33;609.28;;;19.40;99.90;;;;;;5048241;28;20389;-92
2023/08/27 10:47:12;;;;;;;765.63;697.03;;;19.30;99.90;;;;;;5047438;28;20105;-92
2023/08/27 10:49:40;;;;;;;748.13;684.65;;;19.30;99.90;;;;;;5046935;28;20131;-92
2023/08/27 10:52:26;;;;;;;642.78;581.55;;;19.30;99.90;;;;;;5039836;28;20046;-92
2023/08/27 10:55:04;;;;;;;402.35;363.13;;;19.50;99.90;;;;;;5066376;28;20153;-91
2023/08/27 10:57:36;;;;;;;393.83;355.42;;;19.70;99.90;;;;;;5053594;28;20051;-91
2023/08/27 11:00:10;;;;;;;841.92;766.45;;;19.90;99.90;;;;;;5045467;28;20505;-91
2023/08/27 11:03:15;;;;;;;765.65;700.13;;;20.10;99.90;;;;;;5053780;28;20059;-91
2023/08/27 11:05:41;;;;;;;821.37;749.40;;;20.20;99.90;;;;;;5047989;28;20432;-90
2023/08/27 11:08:16;;;;;;;436.00;399.83;;;20.40;99.90;;;;;;5047398;28;20041;-91
2023/08/27 11:10:42;;;;;;;478.08;436.95;;;20.60;99.90;;;;;;5048530;28;20143;-91
2023/08/27 11:13:37;;;;;;;371.95;343.65;;;20.70;99.90;;;;;;5045904;28;20136;-91
2023/08/27 11:16:15;;;;;;;525.63;482.60;;;20.70;99.90;;;;;;5034294;28;20049;-92
2023/08/27 11:18:48;;;;;;;307.33;283.65;;;20.70;99.90;;;;;;5047732;28;20048;-92
2023/08/27 11:21:25;;;;;;;;;;;20.70;99.90;;;;;;5043581;28;20113;-91
2023/08/27 11:24:14;;;;;;;513.85;468.15;;;20.80;99.90;;;;;;5041881;28;19924;-91
2023/08/27 11:26:43;;;;;;;614.78;559.10;;;20.90;99.90;;;;;;5039716;28;20510;-92
2023/08/27 11:29:11;;;;;;;391.20;358.40;;;21.10;99.90;;;;;;5064818;28;20137;-91
2023/08/27 11:31:41;;;;;;;279.35;258.60;;;21.10;99.90;;;;;;5038642;28;20045;-91
2023/08/27 11:34:11;;;;;;;355.90;329.80;;;21.40;99.90;;;;;;5057391;28;20052;-92
2023/08/27 11:36:54;;;;;;;408.35;379.75;;;21.20;99.90;;;;;;5046605;28;20055;-91
2023/08/27 11:39:23;;;;;;;338.98;307.80;;;21.30;99.90;;;;;;5062404;28;20029;-92
2023/08/27 11:41:48;;;;;;;353.77;326.75;;;21.40;99.90;;;;;;5037586;28;20055;-91
2023/08/27 11:44:17;;;;;;;415.73;378.70;;;21.50;99.90;;;;;;5037510;28;20053;-92
2023/08/27 11:46:44;;;;;;;514.28;468.42;;;21.60;99.90;;;;;;5039837;28;20045;-92
2023/08/27 11:49:12;;;;;;;644.00;589.95;;;21.60;99.90;;;;;;5057736;28;20123;-91
2023/08/27 11:51:40;;;;;;;303.30;281.13;;;21.70;99.90;;;;;;5038874;28;20043;-91
2023/08/27 11:54:09;;;;;;;288.88;269.75;;;21.60;99.90;;;;;;5051531;28;20049;-92
2023/08/27 11:56:36;;;;;;;390.88;361.33;;;21.40;99.90;;;;;;5056909;28;20037;-93
2023/08/27 11:59:03;;;;;;;459.08;421.25;;;21.10;99.90;;;;;;5046387;28;20048;-92
2023/08/27 12:01:35;;;;;;;354.58;326.58;;;20.70;99.90;;;;;;5056044;28;20389;-94
2023/08/27 12:04:03;;;;;;;363.38;334.42;;;20.20;99.90;;;;;;5060911;28;20071;-93
2023/08/27 12:06:34;;;;;;;545.67;503.15;;;20.00;99.90;;;;;;5048651;28;20147;-94
2023/08/27 12:09:22;;;;;;;374.00;345.50;;;19.70;99.90;;;;;;5072893;28;20045;-95
2023/08/27 12:11:54;;;;;;;345.35;320.45;;;19.40;99.90;;;;;;5067588;28;20465;-94
2023/08/27 12:14:41;;;;;;;;;;;19.30;99.90;;;;;;5056289;28;20048;-95
2023/08/27 12:17:14;;;;;;;336.10;311.38;;;19.10;99.90;;;;;;5030661;28;20009;-94
2023/08/27 12:19:43;;;;;;;507.63;468.00;;;19.00;99.90;;;;;;5035965;28;20171;-92